createdAt,value
2022-09-15T00:02:14.206Z,17.60
2022-09-15T00:07:17.273Z,16.51
2022-09-15T00:12:19.887Z,15.81
2022-09-15T00:17:22.794Z,16.65
2022-09-15T00:22:26.391Z,18.65
2022-09-15T00:27:28.972Z,18.74
2022-09-15T00:32:31.899Z,17.13
2022-09-15T00:37:34.489Z,16.16
2022-09-15T00:42:38.228Z,15.53
2022-09-15T00:47:40.912Z,16.39
2022-09-15T00:52:52.990Z,18.36
2022-09-15T00:58:14.514Z,18.13
2022-09-15T01:03:18.274Z,16.62
2022-09-15T01:08:29.810Z,15.75
2022-09-15T01:13:33.120Z,16.05
2022-09-15T01:19:02.324Z,18.12
2022-09-15T01:24:23.427Z,18.25
2022-09-15T01:29:55.251Z,16.61
2022-09-15T01:35:02.843Z,15.56
2022-09-15T01:40:07.093Z,16.57
2022-09-15T01:45:16.765Z,17.54
2022-09-15T01:50:22.575Z,16.39
2022-09-15T01:55:29.712Z,15.87
2022-09-15T02:00:34.500Z,17.46
2022-09-15T02:05:42.817Z,18.30
2022-09-15T02:11:01.289Z,17.14
2022-09-15T02:16:05.117Z,15.95
2022-09-15T02:21:23.991Z,16.50
2022-09-15T02:26:28.946Z,18.11
2022-09-15T02:31:33.320Z,18.72
2022-09-15T02:36:36.393Z,17.55
2022-09-15T02:41:39.719Z,16.06
2022-09-15T02:46:42.700Z,16.25
2022-09-15T02:51:45.314Z,17.78
2022-09-15T02:56:47.887Z,18.17
2022-09-15T03:01:52.084Z,16.68
2022-09-15T03:06:54.786Z,16.06
2022-09-15T03:11:57.442Z,17.51
2022-09-15T03:17:00.392Z,17.93
2022-09-15T03:22:03.382Z,16.41
2022-09-15T03:27:06.161Z,16.64
2022-09-15T03:32:08.665Z,17.83
2022-09-15T03:37:11.862Z,17.39
2022-09-15T03:42:14.767Z,16.36
2022-09-15T03:47:17.514Z,17.67
2022-09-15T03:52:20.023Z,17.56
2022-09-15T03:57:22.545Z,16.00
2022-09-15T04:02:25.197Z,15.87
2022-09-15T04:07:27.841Z,17.59
2022-09-15T04:12:32.704Z,18.38
2022-09-15T04:17:35.765Z,17.51
2022-09-15T04:22:38.509Z,15.91
2022-09-15T04:27:41.209Z,16.56
2022-09-15T04:32:43.738Z,17.59
2022-09-15T04:37:46.482Z,16.98
2022-09-15T04:42:49.036Z,15.63
2022-09-15T04:47:53.483Z,16.72
2022-09-15T04:52:56.124Z,17.62
2022-09-15T04:57:58.740Z,17.87
2022-09-15T05:03:01.323Z,16.58
2022-09-15T05:08:04.259Z,17.02
2022-09-15T05:13:06.943Z,17.91
2022-09-15T05:18:09.481Z,16.93
2022-09-15T05:23:12.234Z,16.25
2022-09-15T05:28:14.854Z,17.63
2022-09-15T05:33:18.048Z,18.39
2022-09-15T05:38:20.743Z,17.70
2022-09-15T05:43:23.271Z,16.39
2022-09-15T05:48:26.179Z,17.36
2022-09-15T05:53:29.252Z,18.26
2022-09-15T05:58:32.472Z,18.97
2022-09-15T06:03:35.985Z,18.79
2022-09-15T06:08:48.225Z,19.23
2022-09-15T06:13:51.723Z,20.61
2022-09-15T06:18:54.361Z,20.97
2022-09-15T06:23:58.919Z,21.54
2022-09-15T06:29:03.010Z,22.39
2022-09-15T06:34:11.843Z,22.64
2022-09-15T06:39:14.412Z,22.65
2022-09-15T06:44:17.570Z,23.38
2022-09-15T06:49:20.871Z,23.88
2022-09-15T06:54:23.492Z,23.85
2022-09-15T06:59:26.259Z,23.80
2022-09-15T07:04:37.154Z,24.15
2022-09-15T07:09:41.352Z,24.72
2022-09-15T07:14:44.397Z,25.18
2022-09-15T07:19:46.973Z,25.56
2022-09-15T07:24:49.550Z,25.84
2022-09-15T07:29:52.390Z,25.89
2022-09-15T07:34:58.254Z,26.16
2022-09-15T07:40:01.553Z,26.83
2022-09-15T07:45:05.256Z,27.57
2022-09-15T07:50:08.592Z,27.87
2022-09-15T07:55:11.415Z,28.33
2022-09-15T08:00:15.577Z,28.70
2022-09-15T08:05:18.407Z,29.34
2022-09-15T08:10:21.467Z,29.97
2022-09-15T08:15:24.621Z,30.43
2022-09-15T08:20:27.271Z,30.88
2022-09-15T08:25:30.586Z,31.57
2022-09-15T08:30:33.120Z,31.32
2022-09-15T08:35:37.045Z,29.24
2022-09-15T08:40:44.054Z,27.08
2022-09-15T08:45:53.569Z,25.50
2022-09-15T08:50:58.788Z,24.34
2022-09-15T08:56:09.319Z,23.62
2022-09-15T09:01:31.369Z,23.24
2022-09-15T09:06:34.063Z,24.62
2022-09-15T09:11:36.608Z,27.03
2022-09-15T09:16:41.961Z,26.89
2022-09-15T09:21:48.285Z,26.23
2022-09-15T09:26:54.556Z,25.03
2022-09-15T09:31:58.630Z,24.09
2022-09-15T09:37:08.798Z,24.71
2022-09-15T09:42:14.827Z,24.59
2022-09-15T09:47:18.174Z,24.00
2022-09-15T09:52:40.963Z,22.77
2022-09-15T09:57:43.866Z,21.77
2022-09-15T10:02:47.007Z,21.02
2022-09-15T10:07:49.667Z,20.25
2022-09-15T10:12:55.981Z,19.74
2022-09-15T10:17:58.578Z,19.77
2022-09-15T10:23:02.991Z,20.20
2022-09-15T10:28:08.412Z,19.87
2022-09-15T10:33:27.605Z,19.28
2022-09-15T10:38:30.094Z,19.11
2022-09-15T10:43:52.938Z,18.89
2022-09-15T10:49:15.988Z,18.69
2022-09-15T10:54:28.412Z,18.60
2022-09-15T10:59:44.394Z,18.72
2022-09-15T11:04:47.004Z,20.00
2022-09-15T11:10:09.832Z,20.49
2022-09-15T11:15:32.264Z,20.15
2022-09-15T11:20:59.139Z,19.63
2022-09-15T11:26:06.531Z,19.16
2022-09-15T11:31:24.554Z,19.10
2022-09-15T11:36:30.777Z,19.52
2022-09-15T11:41:41.975Z,19.72
2022-09-15T11:46:53.745Z,19.69
2022-09-15T11:51:59.074Z,19.84
2022-09-15T11:57:02.218Z,20.40
2022-09-15T12:02:17.350Z,21.52
2022-09-15T12:07:23.970Z,22.51
2022-09-15T12:12:30.635Z,23.11
2022-09-15T12:17:40.421Z,23.15
2022-09-15T12:22:47.033Z,23.48
2022-09-15T12:28:08.394Z,24.40
2022-09-15T12:33:29.574Z,24.65
2022-09-15T12:38:32.167Z,25.31
2022-09-15T12:43:34.893Z,26.36
2022-09-15T12:48:38.096Z,26.48
2022-09-15T12:53:49.754Z,26.45
2022-09-15T12:58:53.305Z,26.49
2022-09-15T13:03:59.355Z,26.76
2022-09-15T13:09:02.309Z,26.89
2022-09-15T13:14:07.622Z,25.87
2022-09-15T13:19:12.610Z,24.49
2022-09-15T13:24:21.644Z,23.23
2022-09-15T13:29:24.644Z,24.97
2022-09-15T13:35:10.036Z,26.09
2022-09-15T13:40:34.520Z,26.07
2022-09-15T13:45:40.279Z,27.73
2022-09-15T13:50:51.553Z,29.40
2022-09-15T13:55:58.441Z,28.33
2022-09-15T14:01:03.411Z,27.09
2022-09-15T14:06:26.436Z,25.75
2022-09-15T14:11:30.854Z,24.16
2022-09-15T14:16:34.987Z,24.80
2022-09-15T14:21:47.768Z,24.93
2022-09-15T14:26:50.466Z,23.19
2022-09-15T14:31:54.223Z,21.92
2022-09-15T14:37:07.664Z,20.75
2022-09-15T14:42:30.711Z,19.81
2022-09-15T14:47:33.625Z,19.07
2022-09-15T14:52:39.303Z,18.58
2022-09-15T14:57:46.400Z,18.46
2022-09-15T15:03:14.748Z,18.49
2022-09-15T15:08:30.299Z,18.15
2022-09-15T15:13:33.305Z,17.82
2022-09-15T15:18:35.904Z,17.55
2022-09-15T15:23:46.874Z,17.40
2022-09-15T15:28:49.776Z,17.32
2022-09-15T15:34:00.390Z,17.20
2022-09-15T15:39:05.278Z,17.01
2022-09-15T15:44:25.895Z,16.86
2022-09-15T15:49:29.813Z,16.61
2022-09-15T15:54:33.662Z,16.34
2022-09-15T15:59:36.192Z,16.21
2022-09-15T16:04:38.804Z,16.09
2022-09-15T16:09:41.400Z,15.97
2022-09-15T16:14:44.100Z,15.87
2022-09-15T16:19:47.363Z,15.74
2022-09-15T16:24:50.116Z,15.64
2022-09-15T16:29:53.153Z,15.53
2022-09-15T16:34:55.726Z,15.43
2022-09-15T16:39:58.280Z,15.35
2022-09-15T16:45:01.958Z,15.30
2022-09-15T16:50:04.859Z,15.26
2022-09-15T16:55:17.372Z,15.21
2022-09-15T17:00:20.000Z,15.11
2022-09-15T17:05:31.153Z,14.98
2022-09-15T17:10:34.637Z,14.81
2022-09-15T17:15:38.755Z,14.70
2022-09-15T17:20:42.531Z,14.61
2022-09-15T17:25:51.784Z,14.58
2022-09-15T17:30:58.837Z,14.58
2022-09-15T17:36:01.560Z,14.57
2022-09-15T17:41:04.409Z,14.53
2022-09-15T17:46:07.964Z,14.45
2022-09-15T17:51:14.304Z,14.34
2022-09-15T17:56:17.049Z,14.18
2022-09-15T18:01:20.585Z,14.01
2022-09-15T18:06:23.141Z,13.83
2022-09-15T18:11:27.263Z,13.67
2022-09-15T18:16:30.246Z,13.52
2022-09-15T18:21:32.855Z,13.35
2022-09-15T18:26:35.776Z,13.19
2022-09-15T18:31:38.464Z,13.05
2022-09-15T18:36:41.250Z,12.94
2022-09-15T18:41:43.846Z,14.50
2022-09-15T18:46:46.462Z,15.30
2022-09-15T18:51:52.356Z,14.19
2022-09-15T18:56:55.131Z,13.47
2022-09-15T19:01:57.748Z,13.03
2022-09-15T19:07:00.531Z,14.03
2022-09-15T19:12:03.916Z,16.04
2022-09-15T19:17:06.581Z,15.22
2022-09-15T19:22:09.697Z,13.85
2022-09-15T19:27:12.275Z,13.08
2022-09-15T19:32:18.169Z,13.34
2022-09-15T19:37:21.951Z,15.32
2022-09-15T19:42:24.520Z,14.83
2022-09-15T19:47:27.145Z,13.50
2022-09-15T19:52:29.742Z,12.76
2022-09-15T19:57:32.521Z,13.84
2022-09-15T20:02:35.169Z,15.71
2022-09-15T20:07:37.840Z,15.41
2022-09-15T20:12:40.591Z,13.86
2022-09-15T20:17:43.235Z,13.26
2022-09-15T20:22:46.411Z,15.01
2022-09-15T20:27:49.595Z,14.99
2022-09-15T20:32:52.192Z,13.47
2022-09-15T20:37:54.808Z,12.74
2022-09-15T20:42:58.069Z,14.29
2022-09-15T20:48:00.660Z,15.33
2022-09-15T20:53:03.265Z,14.11
2022-09-15T20:58:08.112Z,14.80
2022-09-15T21:03:10.711Z,16.01
2022-09-15T21:08:13.549Z,14.69
2022-09-15T21:13:16.307Z,13.21
2022-09-15T21:18:19.732Z,13.72
2022-09-15T21:23:22.452Z,15.21
2022-09-15T21:28:25.190Z,14.34
2022-09-15T21:33:28.852Z,13.36
2022-09-15T21:38:31.554Z,14.83
2022-09-15T21:43:36.202Z,14.14
2022-09-15T21:48:38.899Z,14.25
2022-09-15T21:53:42.627Z,15.19
2022-09-15T21:58:45.242Z,13.48
2022-09-15T22:03:49.460Z,13.14
2022-09-15T22:08:52.053Z,15.29
2022-09-15T22:13:55.876Z,14.94
2022-09-15T22:18:59.970Z,13.12
2022-09-15T22:24:04.655Z,13.97
2022-09-15T22:29:07.275Z,15.44
2022-09-15T22:34:09.950Z,14.02
2022-09-15T22:39:12.890Z,13.30
2022-09-15T22:44:19.814Z,15.30
2022-09-15T22:49:22.656Z,15.92
2022-09-15T22:54:25.202Z,14.07
2022-09-15T22:59:27.911Z,14.44
2022-09-15T23:04:30.656Z,15.89
2022-09-15T23:09:33.351Z,14.55
2022-09-15T23:14:37.075Z,13.56
2022-09-15T23:19:40.269Z,15.12
2022-09-15T23:24:42.883Z,16.01
2022-09-15T23:29:45.583Z,14.69
2022-09-15T23:34:49.014Z,14.08
2022-09-15T23:39:52.565Z,15.46
2022-09-15T23:44:55.218Z,14.24
2022-09-15T23:49:57.820Z,15.02
2022-09-15T23:55:00.345Z,15.83
